Time;durP1;ratioP1;P1;durP2;ratioP2;P2;SDS_P1;SDS_P2;PMS_P1;PMS_P2;Temp;Humidity;BMP_temperature;BMP_pressure;BME280_temperature;BME280_humidity;BME280_pressure;Samples;Min_cycle;Max_cycle;Signal;HPM_P1;HPM_P2
2021/11/02 00:00:28;;;;;;;1.73;1.20;;;;;;;8.93;95.47;94978.09;5036176;28;20229;-70
2021/11/02 00:02:54;;;;;;;1.77;1.17;;;;;;;8.82;94.43;94982.09;5036846;28;20205;-70
2021/11/02 00:05:21;;;;;;;2.47;1.03;;;;;;;8.90;95.09;94978.50;5037250;28;20205;-70
2021/11/02 00:07:48;;;;;;;2.70;1.37;;;;;;;8.83;94.05;94986.31;5035818;28;20221;-70
2021/11/02 00:10:15;;;;;;;0.93;0.93;;;;;;;8.90;95.05;94976.66;5036565;28;20197;-71
2021/11/02 00:12:42;;;;;;;2.00;0.97;;;;;;;8.82;94.80;94984.72;5037395;28;20200;-70
2021/11/02 00:15:11;;;;;;;1.77;1.30;;;;;;;8.99;95.71;94985.97;5036829;28;20210;-70
2021/11/02 00:17:39;;;;;;;0.80;0.77;;;;;;;8.75;96.98;94978.63;5035337;28;20316;-70
2021/11/02 00:20:10;;;;;;;1.80;1.60;;;;;;;8.83;98.06;94977.63;5036200;28;20225;-70
2021/11/02 00:22:38;;;;;;;2.17;0.97;;;;;;;8.85;97.48;94980.91;5036858;28;20216;-70
2021/11/02 00:25:07;;;;;;;2.73;1.67;;;;;;;9.01;99.42;94975.28;5036307;28;20201;-70
2021/11/02 00:27:37;;;;;;;4.30;1.40;;;;;;;9.08;100.00;94980.34;5032752;28;20225;-70
2021/11/02 00:30:07;;;;;;;2.80;1.13;;;;;;;9.21;99.60;94983.00;5036890;28;20205;-71
2021/11/02 00:32:35;;;;;;;3.00;1.67;;;;;;;9.28;99.32;94985.66;5036283;28;20216;-71
2021/11/02 00:35:01;;;;;;;2.67;2.30;;;;;;;8.92;100.00;94985.13;5036660;28;20197;-70
2021/11/02 00:37:28;;;;;;;2.40;1.87;;;;;;;8.93;100.00;94989.38;5035612;28;20221;-70
2021/11/02 00:39:54;;;;;;;6.93;3.07;;;;;;;9.06;100.00;94989.44;5037432;28;21286;-70
2021/11/02 00:42:26;;;;;;;6.47;2.13;;;;;;;9.18;100.00;94987.88;5040478;28;20204;-70
2021/11/02 00:44:56;;;;;;;4.10;2.60;;;;;;;9.25;99.86;94989.50;5040740;28;20647;-70
2021/11/02 00:47:25;;;;;;;4.93;2.23;;;;;;;9.26;100.00;94975.31;5039496;28;20798;-70
2021/11/02 00:49:53;;;;;;;4.77;3.20;;;;;;;9.57;100.00;94977.41;5040152;28;20592;-70
2021/11/02 00:52:19;;;;;;;4.73;3.07;;;;;;;9.23;100.00;94977.56;5040175;28;20216;-70
2021/11/02 00:54:46;;;;;;;4.40;2.60;;;;;;;9.38;100.00;94972.94;5040467;28;21151;-70
2021/11/02 00:57:12;;;;;;;6.73;2.90;;;;;;;9.33;100.00;94972.72;5039357;28;20573;-70
2021/11/02 00:59:39;;;;;;;9.27;3.03;;;;;;;9.36;100.00;94978.38;5039895;28;20233;-70
2021/11/02 01:02:08;;;;;;;3.63;2.77;;;;;;;9.63;99.47;94973.97;5040540;28;20202;-70
2021/11/02 01:04:35;;;;;;;3.70;2.20;;;;;;;9.61;99.78;94966.28;5039967;28;20209;-70
2021/11/02 01:07:03;;;;;;;4.93;3.63;;;;;;;9.76;100.00;94966.88;5038802;28;20701;-70
2021/11/02 01:09:30;;;;;;;5.67;3.23;;;;;;;9.45;100.00;94979.03;5040130;28;20197;-70
2021/11/02 01:11:56;;;;;;;7.17;3.43;;;;;;;9.33;100.00;94967.47;5040243;28;20209;-70
2021/11/02 01:14:23;;;;;;;5.30;2.73;;;;;;;9.54;100.00;94962.03;5039756;28;20669;-70
2021/11/02 01:16:49;;;;;;;6.53;2.83;;;;;;;9.58;99.80;94953.53;5038603;28;20221;-70
2021/11/02 01:19:16;;;;;;;3.90;2.40;;;;;;;9.49;100.00;94959.19;5040026;28;20209;-70
2021/11/02 01:21:42;;;;;;;4.43;2.97;;;;;;;9.56;99.89;94960.00;5039537;28;20208;-70
2021/11/02 01:24:10;;;;;;;5.00;2.70;;;;;;;9.59;100.00;94943.84;5039402;28;20201;-70
2021/11/02 01:26:37;;;;;;;4.80;2.70;;;;;;;9.41;100.00;94952.31;5035476;28;20741;-70
2021/11/02 01:29:03;;;;;;;5.30;2.47;;;;;;;9.31;100.00;94948.47;5040579;28;20208;-70
2021/11/02 01:31:30;;;;;;;5.03;3.00;;;;;;;9.10;100.00;94951.25;5039506;28;20212;-70
2021/11/02 01:33:57;;;;;;;3.33;2.47;;;;;;;9.16;100.00;94947.81;5039301;28;20228;-71
2021/11/02 01:36:23;;;;;;;3.80;2.43;;;;;;;9.25;100.00;94942.19;5038664;28;20201;-70
2021/11/02 01:38:50;;;;;;;5.10;2.83;;;;;;;9.41;98.87;94944.44;5039850;28;20200;-70
2021/11/02 01:41:18;;;;;;;3.87;2.20;;;;;;;9.51;99.99;94944.00;5039299;28;20225;-70
2021/11/02 01:43:45;;;;;;;6.17;2.47;;;;;;;9.39;99.45;94943.00;5039448;28;20206;-70
2021/11/02 01:46:23;;;;;;;3.47;1.80;;;;;;;9.55;99.40;94932.09;5038708;28;20228;-70
2021/11/02 01:48:50;;;;;;;2.53;2.00;;;;;;;9.18;99.72;94940.56;5038392;28;20291;-70
2021/11/02 01:51:16;;;;;;;4.90;2.23;;;;;;;9.27;99.15;94934.91;5038705;28;20201;-71
2021/11/02 01:53:43;;;;;;;5.33;2.80;;;;;;;9.14;99.04;94928.84;5039091;28;20610;-70
2021/11/02 01:56:12;;;;;;;2.77;1.57;;;;;;;8.99;99.56;94941.31;5038074;28;20205;-70
2021/11/02 01:58:40;;;;;;;7.73;3.27;;;;;;;9.17;99.52;94931.06;5038720;28;20231;-69
2021/11/02 02:01:11;;;;;;;3.77;2.70;;;;;;;9.10;99.05;94933.66;5039018;28;20236;-71
2021/11/02 02:03:45;;;;;;;6.83;2.43;;;;;;;9.19;98.47;94927.22;5038668;28;20216;-70
2021/11/02 02:06:20;;;;;;;3.33;2.17;;;;;;;9.45;97.00;94926.44;5038566;28;20195;-70
2021/11/02 02:09:02;;;;;;;4.33;2.47;;;;;;;9.35;96.62;94920.75;5038324;28;20822;-70
2021/11/02 02:11:37;;;;;;;6.20;2.20;;;;;;;9.47;96.17;94914.72;5038447;28;20197;-70
2021/11/02 02:14:13;;;;;;;3.20;2.00;;;;;;;9.52;96.05;94927.22;5038844;28;20297;-70
2021/11/02 02:16:42;;;;;;;4.07;1.87;;;;;;;9.34;97.33;94924.41;5038231;28;20209;-70
2021/11/02 02:19:26;;;;;;;3.83;2.37;;;;;;;9.41;96.75;94917.34;5038377;28;20213;-70
2021/11/02 02:22:06;;;;;;;2.23;1.70;;;;;;;9.38;96.59;94915.09;5038704;28;20201;-70
2021/11/02 02:24:42;;;;;;;1.37;1.00;;;;;;;9.38;97.10;94915.09;5038779;28;20205;-70
2021/11/02 02:27:23;;;;;;;2.60;1.70;;;;;;;9.58;97.16;94908.03;5034099;28;20308;-70
2021/11/02 02:29:53;;;;;;;5.20;2.47;;;;;;;9.55;96.85;94913.72;5038437;28;20197;-71
2021/11/02 02:32:22;;;;;;;3.47;1.80;;;;;;;9.55;96.39;94911.88;5038654;28;20197;-70
2021/11/02 02:34:52;;;;;;;3.50;2.03;;;;;;;9.45;96.44;94911.47;5037982;28;20216;-70
2021/11/02 02:37:20;;;;;;;1.40;1.13;;;;;;;9.47;96.02;94908.63;5037665;28;20221;-70
2021/11/02 02:39:48;;;;;;;1.67;1.23;;;;;;;9.32;96.14;94915.91;5038344;28;20571;-70
2021/11/02 02:42:17;;;;;;;5.97;2.33;;;;;;;9.49;96.25;94917.13;5038001;28;20209;-70
2021/11/02 02:44:46;;;;;;;2.00;1.87;;;;;;;9.41;96.60;94920.75;5037453;28;20209;-70
2021/11/02 02:47:15;;;;;;;4.50;1.93;;;;;;;9.53;96.48;94913.09;5037348;28;20221;-69
2021/11/02 02:49:42;;;;;;;2.77;1.83;;;;;;;9.19;97.08;94908.81;5038886;28;20423;-70
2021/11/02 02:52:09;;;;;;;3.03;2.13;;;;;;;9.16;97.06;94917.13;5038106;28;20228;-70
2021/11/02 02:54:37;;;;;;;3.23;1.47;;;;;;;9.48;96.40;94915.50;5037547;28;20205;-70
2021/11/02 02:57:04;;;;;;;2.03;1.80;;;;;;;9.27;97.21;94916.50;5037495;28;20232;-70
2021/11/02 02:59:31;;;;;;;2.10;1.70;;;;;;;9.37;97.25;94913.50;5037963;28;20212;-70
2021/11/02 03:01:58;;;;;;;2.70;1.63;;;;;;;9.18;97.05;94907.19;5037098;28;20217;-70
2021/11/02 03:04:33;;;;;;;2.40;1.77;;;;;;;9.59;97.16;94896.50;5037549;28;20666;-70
2021/11/02 03:07:01;;;;;;;2.80;1.93;;;;;;;9.29;97.96;94905.78;5037222;28;20908;-71
2021/11/02 03:09:28;;;;;;;1.30;1.20;;;;;;;9.32;97.90;94902.78;5037825;28;20208;-70
2021/11/02 03:11:57;;;;;;;1.73;1.43;;;;;;;9.53;97.47;94899.94;5037596;28;20203;-70
2021/11/02 03:14:32;;;;;;;2.17;1.77;;;;;;;9.63;96.74;94897.72;5037304;28;20201;-70
2021/11/02 03:17:05;;;;;;;3.83;2.17;;;;;;;9.55;96.72;94897.94;5036872;28;20228;-70
2021/11/02 03:45:00;;;;;;;2.53;1.60;;;;;;;9.16;98.61;94896.09;5036973;28;20263;-70
2021/11/02 03:50:26;;;;;;;3.63;2.27;;;;;;;9.36;97.09;94896.09;5037044;28;20212;-70
2021/11/02 03:55:51;;;;;;;1.33;1.10;;;;;;;9.23;98.68;94901.34;5035506;28;20247;-70
2021/11/02 03:58:22;;;;;;;2.70;1.80;;;;;;;9.28;98.22;94909.44;5036477;28;20332;-71
2021/11/02 04:01:13;;;;;;;3.67;2.03;;;;;;;9.40;97.42;94902.56;5037024;28;20274;-70
2021/11/02 05:08:04;;;;;;;5.00;2.47;;;;;;;9.82;97.18;94930.06;5052591;28;20330;-70
2021/11/02 05:46:53;;;;;;;8.17;3.13;;;;;;;9.51;96.25;94899.31;5051951;28;20250;-70
2021/11/02 05:49:26;;;;;;;4.37;3.07;;;;;;;9.39;96.40;94908.84;5052578;28;20227;-70
2021/11/02 05:57:32;;;;;;;8.07;3.20;;;;;;;9.68;96.15;94915.28;4993857;28;20787;-71
2021/11/02 06:00:01;;;;;;;8.07;3.97;;;;;;;9.46;95.94;94925.44;5052797;28;20266;-71
2021/11/02 06:02:49;;;;;;;6.50;2.87;;;;;;;9.38;96.11;94922.97;5039036;28;20205;-72
2021/11/02 06:27:59;;;;;;;7.27;4.07;;;;;;;9.28;96.64;94939.16;5038299;28;20721;-71
2021/11/02 06:30:35;;;;;;;8.10;4.07;;;;;;;9.66;96.35;94934.13;5038810;28;20577;-71
2021/11/02 06:33:10;;;;;;;6.60;4.30;;;;;;;9.47;97.37;94932.28;5038570;28;20205;-72
2021/11/02 06:35:43;;;;;;;6.80;3.20;;;;;;;9.36;97.75;94928.44;5037661;28;20213;-72
2021/11/02 06:52:58;;;;;;;6.90;2.60;;;;;;;9.49;97.99;94941.59;5036280;28;20212;-71
2021/11/02 06:55:52;;;;;;;3.93;2.77;;;;;;;9.50;99.08;94934.53;5037890;28;20246;-71
2021/11/02 06:58:38;;;;;;;5.10;2.87;;;;;;;9.60;98.39;94932.28;5038409;28;20266;-71
2021/11/02 07:15:39;;;;;;;2.80;1.77;;;;;;;9.32;97.17;94957.97;5012946;28;20209;-72
2021/11/02 07:18:10;;;;;;;4.17;2.77;;;;;;;9.34;96.92;94956.75;5037692;28;20237;-71
2021/11/02 07:20:45;;;;;;;2.80;1.30;;;;;;;9.79;96.29;94954.16;5038203;28;20303;-71
2021/11/02 07:23:31;;;;;;;3.50;1.53;;;;;;;9.27;97.50;94960.38;5037873;28;20311;-71
2021/11/02 07:26:12;;;;;;;6.90;2.50;;;;;;;9.53;97.30;94960.41;5034491;28;20200;-72
2021/11/02 08:47:24;;;;;;;1.33;0.80;;;;;;;11.03;92.52;94947.56;5034725;28;20236;-71
2021/11/02 08:49:51;;;;;;;2.07;1.23;;;;;;;10.80;91.83;94951.72;5035729;28;20747;-72
2021/11/02 08:52:19;;;;;;;2.83;1.27;;;;;;;10.93;92.04;94953.28;5035220;28;20197;-71
2021/11/02 08:54:48;;;;;;;1.17;0.93;;;;;;;10.67;92.61;94957.06;5035104;28;20782;-71
2021/11/02 08:57:15;;;;;;;0.80;0.80;;;;;;;10.12;94.77;94949.69;5034981;28;20217;-71
2021/11/02 08:59:43;;;;;;;1.33;0.90;;;;;;;10.47;94.37;94945.75;5035453;28;20839;-71
2021/11/02 09:02:11;;;;;;;1.13;0.90;;;;;;;10.19;95.30;94950.47;5034959;28;20212;-71
2021/11/02 09:04:44;;;;;;;1.43;1.13;;;;;;;10.33;95.05;94957.34;5036512;28;20201;-71
2021/11/02 09:07:16;;;;;;;1.53;0.97;;;;;;;10.49;95.00;94956.91;5035787;28;20225;-71
2021/11/02 09:09:47;;;;;;;0.97;0.93;;;;;;;10.66;94.36;94939.63;5036168;28;20225;-71
2021/11/02 09:12:15;;;;;;;1.00;0.90;;;;;;;10.69;94.04;94947.09;5036861;28;20205;-72
2021/11/02 09:14:47;;;;;;;1.23;1.10;;;;;;;11.03;93.40;94947.56;5037150;28;20209;-71
2021/11/02 09:17:14;;;;;;;1.40;1.30;;;;;;;10.97;91.54;94946.56;5035402;28;20232;-71
2021/11/02 09:19:41;;;;;;;4.30;2.57;;;;;;;11.05;92.19;94946.31;5036940;28;20227;-71
2021/11/02 09:22:11;;;;;;;1.20;1.10;;;;;;;11.29;90.49;94945.59;5036194;28;20216;-71
2021/11/02 09:24:42;;;;;;;1.13;1.03;;;;;;;11.34;90.41;94944.94;5036524;28;20211;-72
2021/11/02 09:27:09;;;;;;;4.07;1.87;;;;;;;11.39;90.37;94940.66;5031979;28;20225;-71
2021/11/02 09:29:36;;;;;;;1.10;1.00;;;;;;;11.18;90.94;94945.47;5035392;28;20205;-71
2021/11/02 09:32:06;;;;;;;0.90;0.90;;;;;;;11.42;91.08;94942.88;5036281;28;20209;-72
2021/11/02 09:34:32;;;;;;;4.77;1.50;;;;;;;10.79;92.15;94945.63;5035948;28;20689;-71
2021/11/02 09:37:07;;;;;;;1.67;1.10;;;;;;;11.25;90.91;94948.84;5037463;28;20236;-71
2021/11/02 09:39:40;;;;;;;2.87;1.03;;;;;;;11.21;91.27;94948.47;5039617;28;20236;-71
2021/11/02 09:42:32;;;;;;;0.97;0.97;;;;;;;11.27;90.73;94950.25;5040324;28;20241;-70
2021/11/02 09:45:29;;;;;;;1.27;0.80;;;;;;;11.38;90.10;94948.75;5039828;28;20216;-72
2021/11/02 09:48:24;;;;;;;1.33;1.00;;;;;;;11.61;90.35;94947.25;4989637;28;20225;-71
2021/11/02 09:51:24;;;;;;;0.77;0.77;;;;;;;11.61;88.57;94947.25;5039423;28;20594;-70
2021/11/02 09:54:22;;;;;;;1.13;0.97;;;;;;;11.56;88.85;94949.69;5039836;28;20209;-70
2021/11/02 09:57:05;;;;;;;1.10;0.70;;;;;;;11.67;89.31;94954.28;5038438;28;20699;-71
2021/11/02 10:00:01;;;;;;;3.63;1.07;;;;;;;11.73;89.92;94950.78;5038788;28;20258;-71
2021/11/02 10:03:03;;;;;;;1.83;1.40;;;;;;;11.55;91.06;94953.34;5037996;28;20633;-71
2021/11/02 10:05:51;;;;;;;1.13;1.00;;;;;;;11.52;90.24;94958.25;5014341;28;20216;-71
2021/11/02 10:08:33;;;;;;;3.50;1.57;;;;;;;11.48;91.04;94960.50;5038926;28;20229;-71
2021/11/02 10:11:04;;;;;;;1.90;1.20;;;;;;;11.41;90.49;94957.06;5037455;28;20221;-72
2021/11/02 10:13:53;;;;;;;0.70;0.70;;;;;;;11.71;90.74;94947.53;5039272;28;20641;-71
2021/11/02 10:16:41;;;;;;;1.50;0.63;;;;;;;11.55;90.65;94956.00;5022712;28;20229;-72
2021/11/02 10:19:39;;;;;;;1.67;0.90;;;;;;;11.62;90.70;94954.94;5037678;28;20211;-71
2021/11/02 10:22:29;;;;;;;1.73;1.23;;;;;;;11.79;91.10;94947.31;5039042;28;20205;-70
2021/11/02 10:25:12;;;;;;;1.53;0.80;;;;;;;11.83;91.16;94956.41;5038956;28;20205;-71
2021/11/02 10:28:19;;;;;;;0.63;0.63;;;;;;;12.01;93.16;94954.59;5035617;28;20225;-71
2021/11/02 10:30:55;;;;;;;5.03;1.47;;;;;;;11.59;93.80;94951.91;5021078;28;20713;-70
2021/11/02 10:33:29;;;;;;;0.57;0.53;;;;;;;11.22;95.20;94958.00;5038633;28;20205;-70
2021/11/02 10:36:19;;;;;;;1.30;1.20;;;;;;;11.78;93.24;94953.59;5037617;28;20213;-69
2021/11/02 10:39:02;;;;;;;0.37;0.37;;;;;;;11.44;94.20;94951.34;5037914;28;20217;-70
2021/11/02 10:41:37;;;;;;;0.70;0.70;;;;;;;11.42;94.49;94952.59;5037736;28;20223;-70
2021/11/02 10:44:17;;;;;;;0.50;0.50;;;;;;;11.52;93.79;94945.88;5038477;28;20327;-70
2021/11/02 10:47:03;;;;;;;0.60;0.60;;;;;;;11.63;92.81;94940.72;5037814;28;20205;-70
2021/11/02 10:49:48;;;;;;;0.70;0.70;;;;;;;11.86;94.93;94945.41;5038447;28;20217;-70
2021/11/02 10:52:19;;;;;;;2.13;1.00;;;;;;;11.96;93.98;94935.16;5037480;28;20216;-70
2021/11/02 10:55:05;;;;;;;0.50;0.50;;;;;;;11.93;91.53;94938.25;5038644;28;20213;-71
2021/11/02 10:57:46;;;;;;;0.83;0.60;;;;;;;12.15;92.56;94936.81;5037395;28;20229;-70
2021/11/02 11:00:14;;;;;;;0.30;0.30;;;;;;;11.45;91.33;94952.19;5038312;28;20205;-69
2021/11/02 11:02:46;;;;;;;0.20;0.20;;;;;;;11.48;91.92;94944.66;5038721;28;20212;-70
2021/11/02 11:05:12;;;;;;;2.20;0.40;;;;;;;11.24;92.56;94950.69;5038395;28;20216;-70
2021/11/02 11:07:41;;;;;;;0.50;0.43;;;;;;;11.77;88.50;94946.69;5037377;28;20221;-70
2021/11/02 11:10:12;;;;;;;0.30;0.30;;;;;;;11.73;87.50;94938.38;5038318;28;20246;-69
2021/11/02 11:12:44;;;;;;;0.40;0.40;;;;;;;12.07;87.54;94935.28;5037972;28;20209;-70
2021/11/02 11:15:11;;;;;;;0.20;0.20;;;;;;;11.56;89.09;94939.16;5038177;28;20209;-70
2021/11/02 11:17:46;;;;;;;1.63;0.60;;;;;;;12.18;90.41;94937.19;5037301;28;20232;-69
2021/11/02 11:20:15;;;;;;;0.20;0.20;;;;;;;11.81;89.64;94938.16;5038192;28;20209;-71
2021/11/02 11:22:43;;;;;;;1.27;0.30;;;;;;;11.72;89.46;94938.59;5037910;28;20205;-70
2021/11/02 11:25:13;;;;;;;0.53;0.50;;;;;;;11.64;88.37;94942.31;5037331;28;20209;-69
2021/11/02 11:27:47;;;;;;;0.43;0.43;;;;;;;11.51;90.22;94938.16;5034910;28;20232;-71
2021/11/02 11:30:16;;;;;;;2.60;0.27;;;;;;;11.16;91.20;94942.22;5037515;28;20202;-70
2021/11/02 11:32:43;;;;;;;0.40;0.40;;;;;;;11.10;91.86;94949.16;5037318;28;20200;-69
2021/11/02 11:35:10;;;;;;;0.97;0.97;;;;;;;11.21;93.20;94935.28;5037805;28;20212;-70
2021/11/02 11:37:40;;;;;;;1.40;0.50;;;;;;;11.20;92.13;94933.69;5036659;28;20225;-69
2021/11/02 11:40:09;;;;;;;0.40;0.40;;;;;;;11.49;92.07;94933.06;5038602;28;20209;-69
2021/11/02 11:42:39;;;;;;;0.30;0.30;;;;;;;11.63;92.03;94937.25;5037631;28;20297;-70
2021/11/02 11:45:10;;;;;;;0.50;0.50;;;;;;;11.58;92.20;94940.56;5037004;28;20209;-69
2021/11/02 11:47:37;;;;;;;0.50;0.50;;;;;;;11.07;92.69;94938.22;5036837;28;20235;-69
2021/11/02 11:50:20;;;;;;;0.80;0.80;;;;;;;11.67;91.67;94941.09;5037437;28;20209;-70
2021/11/02 11:52:49;;;;;;;0.97;0.80;;;;;;;11.66;91.71;94935.00;5037424;28;20216;-70
2021/11/02 11:55:25;;;;;;;0.67;0.60;;;;;;;11.76;92.17;94916.03;5037808;28;20201;-70
2021/11/02 11:58:08;;;;;;;0.97;0.90;;;;;;;11.79;92.37;94926.19;5037250;28;20289;-69
2021/11/02 12:00:37;;;;;;;0.83;0.70;;;;;;;11.44;92.18;94926.81;5036757;28;20205;-70
2021/11/02 12:03:09;;;;;;;0.40;0.40;;;;;;;11.79;91.00;94923.56;5037620;28;20205;-70
2021/11/02 12:05:43;;;;;;;0.30;0.30;;;;;;;11.97;91.58;94911.19;5036322;28;20209;-70
2021/11/02 12:08:16;;;;;;;0.47;0.37;;;;;;;11.63;90.15;94919.63;5036909;28;20235;-69
2021/11/02 12:10:43;;;;;;;0.30;0.30;;;;;;;11.62;91.24;94922.44;5036537;28;20584;-70
2021/11/02 12:13:13;;;;;;;0.40;0.40;;;;;;;11.32;91.04;94910.09;5037060;28;20205;-70
2021/11/02 12:15:59;;;;;;;0.60;0.60;;;;;;;11.72;88.97;94913.03;5035972;28;20207;-71
2021/11/02 12:18:28;;;;;;;1.20;0.50;;;;;;;11.59;89.38;94905.22;5035003;28;20232;-70
2021/11/02 12:20:55;;;;;;;1.13;0.60;;;;;;;11.54;89.74;94912.16;5036899;28;20204;-70
2021/11/02 12:23:35;;;;;;;0.40;0.40;;;;;;;11.77;88.12;94907.94;5036648;28;20213;-70
2021/11/02 12:26:03;;;;;;;0.40;0.40;;;;;;;11.40;88.66;94909.81;5033103;28;20213;-69
2021/11/02 12:28:34;;;;;;;0.40;0.40;;;;;;;11.65;88.20;94901.72;5036725;28;20987;-70
2021/11/02 12:31:03;;;;;;;0.30;0.30;;;;;;;11.49;88.90;94900.63;5036867;28;20731;-69
2021/11/02 12:33:31;;;;;;;0.80;0.50;;;;;;;11.35;89.24;94904.38;5036421;28;20201;-70
2021/11/02 12:36:02;;;;;;;0.20;0.20;;;;;;;11.53;87.77;94902.63;5035881;28;20221;-70
2021/11/02 12:38:30;;;;;;;0.40;0.40;;;;;;;11.73;87.68;94893.53;5036892;28;20324;-70
2021/11/02 12:40:57;;;;;;;0.20;0.20;;;;;;;11.67;87.06;94896.22;5036622;28;20593;-69
2021/11/02 12:43:25;;;;;;;0.30;0.30;;;;;;;11.90;85.45;94889.34;5037096;28;20212;-70
2021/11/02 12:45:55;;;;;;;0.30;0.30;;;;;;;12.05;85.63;94889.00;5035952;28;20253;-70
2021/11/02 12:48:25;;;;;;;0.63;0.40;;;;;;;12.36;85.18;94895.75;5036335;28;20225;-70
2021/11/02 12:50:54;;;;;;;1.50;0.90;;;;;;;12.26;85.62;94887.53;5036341;28;20221;-70
2021/11/02 12:53:22;;;;;;;0.40;0.40;;;;;;;12.89;84.14;94888.84;5036553;28;20209;-69
2021/11/02 12:55:48;;;;;;;0.50;0.50;;;;;;;13.08;84.14;94885.13;5035473;28;20393;-70
2021/11/02 12:58:18;;;;;;;3.13;1.17;;;;;;;13.53;82.31;94882.63;5036231;28;20228;-71
2021/11/02 13:00:46;;;;;;;3.90;2.23;;;;;;;13.19;81.28;94882.53;5037397;28;20227;-70
2021/11/02 13:03:26;;;;;;;2.27;1.03;;;;;;;13.35;80.73;94887.16;5036978;28;20205;-70
2021/11/02 13:05:58;;;;;;;1.27;0.93;;;;;;;12.86;82.29;94886.66;5036300;28;20228;-70
2021/11/02 13:08:33;;;;;;;0.87;0.40;;;;;;;12.64;81.97;94890.78;5036127;28;20221;-70
2021/11/02 13:11:08;;;;;;;1.87;0.87;;;;;;;12.69;82.96;94890.09;5037386;28;20339;-70
2021/11/02 13:13:57;;;;;;;0.63;0.63;;;;;;;12.49;82.51;94887.69;5039612;28;20286;-69
2021/11/02 13:16:25;;;;;;;0.70;0.70;;;;;;;12.21;82.55;94876.81;5039314;28;20244;-70
2021/11/02 13:18:53;;;;;;;1.40;0.80;;;;;;;12.36;83.19;94887.84;5040086;28;20224;-70
2021/11/02 13:21:25;;;;;;;0.67;0.47;;;;;;;12.35;84.41;94886.22;5039553;28;20208;-70
2021/11/02 13:23:58;;;;;;;0.57;0.57;;;;;;;12.34;82.90;94889.88;5037244;28;20209;-70
2021/11/02 13:26:26;;;;;;;0.43;0.43;;;;;;;12.22;82.36;94885.56;5035109;28;20273;-70
2021/11/02 13:28:54;;;;;;;0.27;0.27;;;;;;;11.90;82.58;94883.22;5039257;28;20582;-70
2021/11/02 13:31:28;;;;;;;0.60;0.40;;;;;;;12.32;80.77;94881.38;5039441;28;20252;-69
2021/11/02 13:33:58;;;;;;;0.30;0.30;;;;;;;12.33;80.71;94880.38;5039079;28;20209;-70
2021/11/02 13:36:25;;;;;;;0.40;0.40;;;;;;;12.12;81.04;94881.78;5038559;28;20673;-70
2021/11/02 13:38:59;;;;;;;4.03;1.03;;;;;;;12.76;78.96;94883.69;5039626;28;20221;-70
2021/11/02 13:41:28;;;;;;;0.40;0.40;;;;;;;12.50;78.57;94886.66;5039173;28;20198;-70
2021/11/02 13:43:56;;;;;;;0.30;0.30;;;;;;;12.50;76.94;94891.13;5039133;28;20205;-70
2021/11/02 13:46:26;;;;;;;0.30;0.30;;;;;;;12.77;75.96;94887.97;5038524;28;21000;-69
2021/11/02 13:48:54;;;;;;;0.20;0.20;;;;;;;12.56;78.02;94888.41;5039205;28;20205;-71
2021/11/02 13:51:24;;;;;;;0.30;0.30;;;;;;;12.78;78.15;94889.56;5038851;28;20736;-70
2021/11/02 13:53:51;;;;;;;0.40;0.40;;;;;;;12.83;79.71;94887.09;5039214;28;20212;-70
2021/11/02 13:56:20;;;;;;;0.30;0.30;;;;;;;12.61;77.39;94896.47;5038661;28;20657;-69
2021/11/02 13:58:47;;;;;;;0.27;0.27;;;;;;;12.60;77.44;94896.69;5038014;28;20228;-70
2021/11/02 14:01:20;;;;;;;0.50;0.50;;;;;;;12.87;77.24;94899.66;5038784;28;20666;-70
2021/11/02 14:03:52;;;;;;;2.47;0.43;;;;;;;12.80;76.92;94898.91;5038337;28;20581;-69
2021/11/02 14:06:24;;;;;;;0.47;0.47;;;;;;;12.67;77.24;94900.09;5038017;28;20201;-69
2021/11/02 14:08:51;;;;;;;1.17;0.57;;;;;;;12.53;77.82;94894.13;5038791;28;20229;-70
2021/11/02 14:11:22;;;;;;;2.10;0.40;;;;;;;12.70;76.83;94897.78;5038845;28;20642;-69
2021/11/02 14:13:50;;;;;;;0.40;0.40;;;;;;;12.72;75.89;94893.09;5038460;28;20678;-70
2021/11/02 14:16:29;;;;;;;1.07;0.50;;;;;;;13.18;76.63;94893.34;5037707;28;20557;-70
2021/11/02 14:18:55;;;;;;;0.20;0.20;;;;;;;12.84;76.67;94892.13;5039165;28;20223;-69
2021/11/02 14:21:45;;;;;;;0.20;0.20;;;;;;;12.79;73.21;94897.28;5037853;28;20201;-70
2021/11/02 14:24:12;;;;;;;0.17;0.17;;;;;;;12.59;74.76;94889.78;5037904;28;20308;-70
2021/11/02 14:26:47;;;;;;;0.60;0.60;;;;;;;12.88;74.36;94893.34;5034951;28;20201;-69
2021/11/02 14:29:14;;;;;;;0.30;0.30;;;;;;;12.49;75.48;94890.31;5038297;28;20206;-69
2021/11/02 14:31:50;;;;;;;0.47;0.47;;;;;;;12.90;74.47;94893.09;5037687;28;20235;-70
2021/11/02 14:34:45;;;;;;;0.30;0.30;;;;;;;13.11;73.82;94897.91;5038586;28;20219;-70
2021/11/02 14:37:15;;;;;;;0.50;0.50;;;;;;;12.96;75.56;94895.66;5037096;28;20312;-70
2021/11/02 14:40:03;;;;;;;0.30;0.30;;;;;;;13.27;75.15;94894.63;5037811;28;20224;-70
2021/11/02 14:42:41;;;;;;;0.40;0.40;;;;;;;12.91;74.02;94905.31;5037949;28;20197;-70
2021/11/02 14:45:10;;;;;;;0.47;0.37;;;;;;;12.64;73.84;94911.09;5038031;28;20205;-69
2021/11/02 14:47:38;;;;;;;0.67;0.60;;;;;;;12.75;73.96;94911.16;5037308;28;20590;-70
2021/11/02 14:50:35;;;;;;;0.50;0.50;;;;;;;12.78;73.92;94914.16;5038075;28;20213;-69
2021/11/02 14:53:14;;;;;;;0.23;0.23;;;;;;;12.80;74.28;94906.00;5037893;28;20626;-70
2021/11/02 14:55:52;;;;;;;0.30;0.30;;;;;;;12.70;74.85;94912.84;5037419;28;20209;-70
2021/11/02 14:58:42;;;;;;;0.40;0.40;;;;;;;12.75;74.03;94916.44;5038704;28;20221;-70
2021/11/02 15:01:10;;;;;;;0.27;0.27;;;;;;;12.19;76.75;94910.56;5038362;28;20284;-69
2021/11/02 15:03:36;;;;;;;0.57;0.37;;;;;;;12.23;75.68;94908.28;5038081;28;20322;-70
2021/11/02 15:06:04;;;;;;;1.83;0.50;;;;;;;12.38;75.69;94906.09;5037395;28;20212;-69
2021/11/02 15:08:32;;;;;;;0.37;0.37;;;;;;;12.57;75.80;94903.22;5038486;28;20263;-70
2021/11/02 15:11:02;;;;;;;0.30;0.30;;;;;;;12.45;76.86;94915.56;5037518;28;20215;-70
2021/11/02 15:13:29;;;;;;;2.83;0.77;;;;;;;12.08;76.96;94913.13;5038202;28;20221;-69
2021/11/02 15:15:57;;;;;;;0.30;0.30;;;;;;;12.10;77.78;94915.53;5037310;28;20205;-69
2021/11/02 15:18:25;;;;;;;0.30;0.30;;;;;;;11.75;78.54;94923.16;5037622;28;20232;-70
2021/11/02 15:21:01;;;;;;;0.33;0.33;;;;;;;11.96;76.90;94924.59;5038375;28;20212;-69
2021/11/02 15:23:39;;;;;;;0.20;0.20;;;;;;;11.65;79.24;94943.16;5038288;28;20204;-70
2021/11/02 15:26:05;;;;;;;0.57;0.50;;;;;;;10.79;87.39;94942.19;5033843;28;20212;-69
2021/11/02 15:28:40;;;;;;;0.20;0.20;;;;;;;10.88;89.12;94938.31;5037743;28;20235;-70
2021/11/02 15:31:07;;;;;;;1.60;0.30;;;;;;;10.48;88.16;94957.91;5037692;28;20619;-70
2021/11/02 15:33:34;;;;;;;0.40;0.40;;;;;;;10.40;90.30;94985.28;5035727;28;20221;-69
2021/11/02 15:36:13;;;;;;;0.27;0.27;;;;;;;10.27;91.57;94973.16;5036405;28;20209;-73
2021/11/02 15:38:41;;;;;;;0.23;0.23;;;;;;;10.29;90.06;94969.31;5036779;28;21088;-72
2021/11/02 15:41:18;;;;;;;0.30;0.30;;;;;;;10.59;87.06;94965.16;5037353;28;20209;-72
2021/11/02 15:43:53;;;;;;;0.20;0.20;;;;;;;10.37;88.04;94961.19;5037654;28;20193;-73
2021/11/02 15:46:22;;;;;;;0.30;0.30;;;;;;;10.32;88.78;94960.97;5036879;28;20209;-72
2021/11/02 15:48:49;;;;;;;0.30;0.30;;;;;;;10.26;88.40;94955.72;5036975;28;20221;-70
2021/11/02 15:51:17;;;;;;;1.00;0.67;;;;;;;10.31;88.68;94962.03;5037653;28;20201;-70
2021/11/02 15:53:45;;;;;;;0.77;0.50;;;;;;;10.51;89.05;94965.41;5037422;28;20306;-70
2021/11/02 15:56:12;;;;;;;0.60;0.60;;;;;;;10.17;89.21;94972.75;5036340;28;20225;-70
2021/11/02 15:58:38;;;;;;;0.90;0.77;;;;;;;10.48;90.25;94960.56;5037285;28;20608;-70
2021/11/02 16:01:05;;;;;;;1.60;1.10;;;;;;;10.43;88.86;94965.63;5037081;28;20212;-70
2021/11/02 16:03:32;;;;;;;5.00;1.20;;;;;;;10.66;90.14;94965.97;5037333;28;20209;-70
2021/11/02 16:05:59;;;;;;;1.43;1.00;;;;;;;10.56;90.26;94966.38;5036093;28;20239;-70
2021/11/02 16:08:25;;;;;;;2.90;1.50;;;;;;;10.48;91.52;94971.09;5036597;28;20240;-71
2021/11/02 16:10:57;;;;;;;7.83;1.77;;;;;;;10.78;90.90;94969.56;5037285;28;20220;-70
2021/11/02 16:13:26;;;;;;;3.37;1.30;;;;;;;10.76;91.54;94976.88;5037049;28;20847;-70
2021/11/02 16:15:53;;;;;;;1.40;1.30;;;;;;;10.35;90.97;94971.13;5036271;28;20209;-70
2021/11/02 16:18:24;;;;;;;1.63;1.10;;;;;;;10.35;91.30;94989.56;5036895;28;20330;-71
2021/11/02 16:20:52;;;;;;;1.07;0.80;;;;;;;10.30;92.14;94988.53;5036994;28;20263;-70
2021/11/02 16:23:22;;;;;;;1.17;1.07;;;;;;;10.39;91.67;94982.84;5037115;28;20215;-70
2021/11/02 16:25:51;;;;;;;1.03;0.87;;;;;;;10.43;91.52;94984.84;5033435;28;20205;-70
2021/11/02 16:28:21;;;;;;;3.27;0.97;;;;;;;10.26;92.42;94996.06;5037158;28;20221;-71